createdAt,value
2019-04-30T00:13:58.568Z,8.31
2019-04-30T02:51:22.878Z,7.88
2019-04-30T02:56:20.238Z,7.80
2019-04-30T03:01:16.183Z,7.72
2019-04-30T03:06:12.097Z,7.74
2019-04-30T03:11:09.718Z,7.66
2019-04-30T03:16:05.277Z,7.71
2019-04-30T03:21:15.473Z,7.71
2019-04-30T03:26:12.989Z,7.70
2019-04-30T03:31:12.554Z,7.68
2019-04-30T03:36:06.492Z,7.54
2019-04-30T03:41:02.577Z,7.59
2019-04-30T03:45:59.294Z,7.68
2019-04-30T03:50:57.170Z,7.66
2019-04-30T03:55:53.171Z,7.50
2019-04-30T04:01:23.034Z,7.52
2019-04-30T04:06:23.495Z,7.45
2019-04-30T04:11:25.854Z,7.42
2019-04-30T04:16:21.588Z,7.47
2019-04-30T04:21:20.693Z,7.52
2019-04-30T04:26:16.386Z,7.50
2019-04-30T04:31:12.374Z,7.55
2019-04-30T04:36:09.189Z,7.57
2019-04-30T04:41:05.111Z,7.56
2019-04-30T04:46:00.855Z,7.52
2019-04-30T04:50:56.812Z,7.53
2019-04-30T04:55:52.669Z,7.54
2019-04-30T05:00:49.511Z,7.56
2019-04-30T05:05:45.446Z,7.64
2019-04-30T05:10:41.159Z,7.77
2019-04-30T05:15:39.234Z,7.81
2019-04-30T05:20:35.990Z,7.80
2019-04-30T05:25:31.731Z,7.77
2019-04-30T05:30:29.375Z,7.79
2019-04-30T05:35:24.946Z,7.77
2019-04-30T05:40:20.746Z,7.85
2019-04-30T05:45:16.930Z,7.91
2019-04-30T05:50:12.757Z,7.98
2019-04-30T05:55:08.846Z,8.18
2019-04-30T06:00:05.831Z,8.44
2019-04-30T06:05:04.043Z,8.50
2019-04-30T06:10:14.192Z,8.44
2019-04-30T06:15:19.351Z,8.40
2019-04-30T06:20:18.630Z,8.28
2019-04-30T06:25:26.973Z,8.24
2019-04-30T06:30:14.014Z,8.27
2019-04-30T06:35:12.339Z,8.27
2019-04-30T06:40:11.667Z,8.57
2019-04-30T06:45:09.214Z,8.79
2019-04-30T06:50:06.173Z,8.80
2019-04-30T06:55:01.917Z,8.82
2019-04-30T06:59:59.600Z,8.82
2019-04-30T07:04:58.701Z,8.78
2019-04-30T07:10:01.215Z,8.75
2019-04-30T07:14:59.079Z,8.76
2019-04-30T07:19:56.911Z,8.68
2019-04-30T07:24:52.886Z,8.62
2019-04-30T07:29:49.500Z,8.50
2019-04-30T07:34:45.668Z,8.50
2019-04-30T07:39:41.571Z,8.47
2019-04-30T07:44:39.305Z,8.48
2019-04-30T07:49:47.042Z,8.53
2019-04-30T07:54:32.377Z,8.61
2019-04-30T07:59:30.061Z,8.71
2019-04-30T08:04:43.119Z,8.78
2019-04-30T08:09:42.056Z,8.89
2019-04-30T08:14:36.344Z,9.01
2019-04-30T08:19:32.121Z,9.06
2019-04-30T08:24:29.168Z,9.18
2019-04-30T08:29:25.204Z,9.21
2019-04-30T15:29:14.361Z,11.89
2019-04-30T15:34:29.215Z,12.05
2019-04-30T15:39:39.291Z,11.95
2019-04-30T15:44:40.053Z,11.75
2019-04-30T15:49:44.470Z,11.74
2019-04-30T15:54:40.425Z,11.98
2019-04-30T15:59:57.456Z,12.08
2019-04-30T16:05:07.163Z,11.79
2019-04-30T16:10:20.586Z,11.93
2019-04-30T16:15:20.744Z,12.01
2019-04-30T16:20:16.780Z,11.88
2019-04-30T16:25:32.238Z,11.70
2019-04-30T16:31:20.502Z,11.51
2019-04-30T16:36:38.887Z,11.57
2019-04-30T16:41:34.033Z,11.43
2019-04-30T16:46:32.646Z,11.38
2019-04-30T16:51:35.313Z,11.31
2019-04-30T16:56:32.659Z,11.26
2019-04-30T17:01:35.308Z,11.10
2019-04-30T17:06:53.085Z,11.11
2019-04-30T17:12:01.423Z,11.20
2019-04-30T17:17:10.496Z,11.18
2019-04-30T17:23:04.294Z,11.21
2019-04-30T17:28:09.200Z,11.16
2019-04-30T17:33:34.172Z,11.13
2019-04-30T17:39:07.407Z,11.18
2019-04-30T17:44:10.614Z,11.14
2019-04-30T17:49:51.575Z,11.09
2019-04-30T17:55:52.413Z,11.05
2019-04-30T19:49:09.899Z,9.29
2019-04-30T19:54:05.693Z,9.23
2019-04-30T19:59:05.227Z,9.06
2019-04-30T20:03:59.348Z,8.93
2019-04-30T20:08:55.096Z,8.94
2019-04-30T20:13:50.934Z,8.84
2019-04-30T20:18:46.693Z,8.74
2019-04-30T20:23:42.650Z,8.64
2019-04-30T20:28:42.070Z,8.74
2019-04-30T20:33:36.327Z,8.78
2019-04-30T20:38:43.046Z,8.76
2019-04-30T20:43:39.477Z,8.79
2019-04-30T20:48:35.473Z,8.67
2019-04-30T20:53:31.369Z,8.59
2019-04-30T20:58:27.140Z,8.54
2019-04-30T21:03:23.030Z,8.39
2019-04-30T21:08:19.113Z,8.57
2019-04-30T21:13:14.943Z,8.56
2019-04-30T21:18:10.781Z,8.21
2019-04-30T21:23:06.652Z,8.32
2019-04-30T21:28:02.548Z,8.31
2019-04-30T21:33:23.317Z,8.23
2019-04-30T21:38:19.571Z,8.16
2019-04-30T21:43:15.538Z,8.01
2019-04-30T21:48:11.418Z,8.14
2019-04-30T21:53:09.701Z,8.06
2019-04-30T21:58:05.033Z,8.14
2019-04-30T22:03:01.041Z,8.32
2019-04-30T22:07:59.050Z,8.31
2019-04-30T22:12:54.239Z,8.35
2019-04-30T22:17:50.005Z,8.53
2019-04-30T22:22:45.877Z,8.52
2019-04-30T22:27:41.623Z,8.48
2019-04-30T22:32:37.362Z,8.21
2019-04-30T22:37:33.196Z,8.14
2019-04-30T22:42:35.645Z,8.16
2019-04-30T22:47:31.692Z,7.96
2019-04-30T22:52:27.444Z,7.49
2019-04-30T22:57:23.211Z,7.34
2019-04-30T23:02:28.973Z,7.54
2019-04-30T23:07:24.661Z,7.54
2019-04-30T23:12:20.527Z,7.22
2019-04-30T23:17:16.316Z,7.34
2019-04-30T23:22:12.055Z,7.34
2019-04-30T23:27:07.836Z,7.42
2019-04-30T23:32:03.590Z,7.33
2019-04-30T23:36:59.474Z,7.24
2019-04-30T23:41:55.206Z,7.01
2019-04-30T23:46:51.102Z,6.87
2019-04-30T23:51:46.843Z,6.94
2019-04-30T23:56:42.710Z,6.70
